createdAt,value
2017-06-25T00:02:24.393Z,14.82
2017-06-25T00:04:52.176Z,14.52
2017-06-25T00:07:19.952Z,15.68
2017-06-25T00:09:47.755Z,14.43
2017-06-25T00:12:16.256Z,13.43
2017-06-25T00:14:43.996Z,12.73
2017-06-25T00:17:12.536Z,12.98
2017-06-25T00:19:40.273Z,11.90
2017-06-25T00:22:08.065Z,11.65
2017-06-25T00:24:35.804Z,13.77
2017-06-25T00:27:03.549Z,11.98
2017-06-25T00:29:31.325Z,11.98
2017-06-25T00:31:59.066Z,11.82
2017-06-25T00:34:26.845Z,13.15
2017-06-25T00:36:54.604Z,11.82
2017-06-25T00:39:22.339Z,10.48
2017-06-25T00:41:50.868Z,12.37
2017-06-25T00:44:18.612Z,10.80
2017-06-25T00:46:46.505Z,11.63
2017-06-25T00:49:14.258Z,11.35
2017-06-25T00:51:42.004Z,15.10
2017-06-25T00:54:15.536Z,12.25
2017-06-25T00:56:43.278Z,13.27
2017-06-25T00:59:11.061Z,11.35
2017-06-25T01:01:38.806Z,12.02
2017-06-25T01:04:06.545Z,10.70
2017-06-25T01:06:34.304Z,10.50
2017-06-25T01:09:02.059Z,12.13
2017-06-25T01:11:29.837Z,11.88
2017-06-25T01:13:57.583Z,13.50
2017-06-25T01:16:25.319Z,12.80
2017-06-25T01:18:53.089Z,11.82
2017-06-25T01:21:20.861Z,13.62
2017-06-25T01:23:48.649Z,14.10
2017-06-25T01:26:16.392Z,12.25
2017-06-25T01:28:44.140Z,15.57
2017-06-25T01:31:11.921Z,15.30
2017-06-25T01:33:39.659Z,12.23
2017-06-25T01:36:07.436Z,13.10
2017-06-25T01:38:35.172Z,12.60
2017-06-25T01:41:02.917Z,14.25
2017-06-25T01:43:31.466Z,12.93
2017-06-25T01:45:59.210Z,13.13
2017-06-25T01:48:27.000Z,12.48
2017-06-25T01:50:54.736Z,14.68
2017-06-25T01:53:22.476Z,14.57
2017-06-25T01:55:50.249Z,13.50
2017-06-25T01:58:17.985Z,14.30
2017-06-25T02:00:45.766Z,13.70
2017-06-25T02:03:13.505Z,13.68
2017-06-25T02:05:41.243Z,12.45
2017-06-25T02:08:09.773Z,14.90
2017-06-25T02:10:37.508Z,14.13
2017-06-25T02:13:05.292Z,14.85
2017-06-25T02:15:33.039Z,13.55
2017-06-25T02:18:00.785Z,13.10
2017-06-25T02:20:28.569Z,13.93
2017-06-25T02:22:56.313Z,15.85
2017-06-25T02:25:24.123Z,15.70
2017-06-25T02:27:51.884Z,15.20
2017-06-25T02:30:19.637Z,13.38
2017-06-25T02:32:47.414Z,14.20
2017-06-25T02:35:15.170Z,12.70
2017-06-25T02:37:42.952Z,12.43
2017-06-25T02:40:10.706Z,12.98
2017-06-25T02:42:38.452Z,18.60
2017-06-25T02:45:06.236Z,11.77
2017-06-25T02:47:34.747Z,14.75
2017-06-25T02:50:02.524Z,11.63
2017-06-25T02:52:30.261Z,12.10
2017-06-25T02:54:58.020Z,9.68
2017-06-25T02:57:25.785Z,12.05
2017-06-25T02:59:53.527Z,10.80
2017-06-25T03:02:22.064Z,9.98
2017-06-25T03:04:49.800Z,10.38
2017-06-25T03:07:17.540Z,10.88
2017-06-25T03:09:49.948Z,10.25
2017-06-25T03:12:17.683Z,9.82
2017-06-25T03:14:45.465Z,13.13
2017-06-25T03:17:13.205Z,8.98
2017-06-25T03:19:40.940Z,8.55
2017-06-25T03:22:09.490Z,10.80
2017-06-25T03:24:37.225Z,7.55
2017-06-25T03:27:04.989Z,8.95
2017-06-25T03:29:32.720Z,9.00
2017-06-25T03:32:00.458Z,7.70
2017-06-25T03:34:28.219Z,7.35
2017-06-25T03:36:55.962Z,8.13
2017-06-25T03:39:23.735Z,7.72
2017-06-25T03:41:52.520Z,6.80
2017-06-25T03:44:20.256Z,7.35
2017-06-25T03:46:48.019Z,6.60
2017-06-25T03:49:15.756Z,5.80
2017-06-25T03:51:43.536Z,7.57
2017-06-25T03:54:11.278Z,8.32
2017-06-25T03:56:39.009Z,6.40
2017-06-25T03:59:07.538Z,7.35
2017-06-25T04:01:35.267Z,5.97
2017-06-25T04:04:03.056Z,6.30
2017-06-25T04:06:30.792Z,5.95
2017-06-25T04:08:58.529Z,5.68
2017-06-25T04:11:27.060Z,7.32
2017-06-25T04:13:54.805Z,7.78
2017-06-25T04:16:22.572Z,6.90
2017-06-25T04:18:50.308Z,5.80
2017-06-25T04:21:18.048Z,5.75
2017-06-25T04:23:46.580Z,5.90
2017-06-25T04:26:14.322Z,5.50
2017-06-25T04:28:42.099Z,6.07
2017-06-25T04:31:09.832Z,6.63
2017-06-25T04:33:37.576Z,6.23
2017-06-25T04:36:06.105Z,5.10
2017-06-25T04:38:33.841Z,6.10
2017-06-25T04:41:01.621Z,7.70
2017-06-25T04:43:29.361Z,5.63
2017-06-25T04:45:57.093Z,5.67
2017-06-25T04:48:25.629Z,5.37
2017-06-25T04:50:53.358Z,4.90
2017-06-25T04:53:21.139Z,5.90
2017-06-25T04:55:48.879Z,5.80
2017-06-25T04:58:16.616Z,6.13
2017-06-25T05:00:44.384Z,5.47
2017-06-25T05:03:12.111Z,6.37
2017-06-25T05:05:39.900Z,5.17
2017-06-25T05:08:08.401Z,5.27
2017-06-25T05:10:36.137Z,5.17
2017-06-25T05:13:04.711Z,5.20
2017-06-25T05:15:33.215Z,6.07
2017-06-25T05:18:00.986Z,5.20
2017-06-25T05:20:28.715Z,5.63
2017-06-25T05:22:56.448Z,4.80
2017-06-25T05:25:24.205Z,7.57
2017-06-25T05:27:51.936Z,5.40
2017-06-25T05:30:19.712Z,5.30
2017-06-25T05:32:47.448Z,5.90
2017-06-25T05:35:15.180Z,4.37
2017-06-25T05:37:42.944Z,5.43
2017-06-25T05:40:10.681Z,5.17
2017-06-25T05:42:38.452Z,7.00
2017-06-25T05:45:06.192Z,5.10
2017-06-25T05:47:33.923Z,4.20
2017-06-25T05:50:01.689Z,5.10
2017-06-25T05:52:29.422Z,4.03
2017-06-25T05:54:57.956Z,5.77
2017-06-25T05:57:25.687Z,3.83
2017-06-25T05:59:53.436Z,3.93
2017-06-25T06:02:21.208Z,4.53
2017-06-25T06:05:16.266Z,3.93
2017-06-25T06:07:44.045Z,3.93
2017-06-25T06:10:12.540Z,3.60
2017-06-25T06:12:40.373Z,3.90
2017-06-25T06:15:08.150Z,5.07
2017-06-25T06:17:36.652Z,5.00
2017-06-25T06:20:04.434Z,4.37
2017-06-25T06:22:32.175Z,4.37
2017-06-25T06:24:59.916Z,3.60
2017-06-25T06:27:28.451Z,5.40
2017-06-25T06:29:56.189Z,5.67
2017-06-25T06:32:23.957Z,7.33
2017-06-25T06:34:51.712Z,5.60
2017-06-25T06:37:19.448Z,4.30
2017-06-25T06:39:47.207Z,4.07
2017-06-25T06:42:14.939Z,4.63
2017-06-25T06:44:42.704Z,4.30
2017-06-25T06:47:10.432Z,4.70
2017-06-25T06:49:38.168Z,3.77
2017-06-25T06:52:05.937Z,3.60
2017-06-25T06:54:33.672Z,5.60
2017-06-25T06:57:01.442Z,4.10
2017-06-25T06:59:29.180Z,4.10
2017-06-25T07:01:57.715Z,4.70
2017-06-25T07:04:25.485Z,3.70
2017-06-25T07:06:53.220Z,4.13
2017-06-25T07:09:21.018Z,4.00
2017-06-25T07:11:48.749Z,2.80
2017-06-25T07:14:16.481Z,3.30
2017-06-25T07:16:44.259Z,3.50
2017-06-25T07:19:11.991Z,3.23
2017-06-25T07:21:40.525Z,3.20
2017-06-25T07:24:08.260Z,2.70
2017-06-25T07:26:35.991Z,2.60
2017-06-25T07:29:04.517Z,3.27
2017-06-25T07:31:32.244Z,3.00
2017-06-25T07:34:00.011Z,3.30
2017-06-25T07:36:27.732Z,3.37
2017-06-25T07:38:55.464Z,2.50
2017-06-25T07:41:23.219Z,2.43
2017-06-25T07:43:50.944Z,4.10
2017-06-25T07:46:18.717Z,4.03
2017-06-25T07:48:46.443Z,3.00
2017-06-25T07:51:14.936Z,3.57
2017-06-25T07:53:42.711Z,2.90
2017-06-25T07:56:10.453Z,3.13
2017-06-25T07:58:38.218Z,2.93
2017-06-25T08:01:05.945Z,2.40
2017-06-25T08:03:33.678Z,4.23
2017-06-25T08:06:01.432Z,3.10
2017-06-25T08:08:29.161Z,3.27
2017-06-25T08:10:56.937Z,3.23
2017-06-25T08:13:24.668Z,3.27
2017-06-25T08:15:53.161Z,2.60
2017-06-25T08:18:20.920Z,2.93
2017-06-25T08:20:48.643Z,4.00
2017-06-25T08:23:16.413Z,1.77
2017-06-25T08:25:44.146Z,4.17
2017-06-25T08:28:11.868Z,4.30
2017-06-25T08:30:39.617Z,3.10
2017-06-25T08:33:08.120Z,2.60
2017-06-25T08:35:35.907Z,4.03
2017-06-25T08:38:03.637Z,2.40
2017-06-25T08:40:31.383Z,2.50
2017-06-25T08:42:59.144Z,1.93
2017-06-25T08:45:26.900Z,2.30
2017-06-25T08:47:55.578Z,2.60
2017-06-25T08:50:24.081Z,2.60
2017-06-25T08:52:51.804Z,3.10
2017-06-25T08:55:19.563Z,2.40
2017-06-25T08:57:47.292Z,2.83
2017-06-25T09:00:15.066Z,2.43
2017-06-25T09:02:42.808Z,4.20
2017-06-25T09:05:10.543Z,3.10
2017-06-25T09:07:38.302Z,2.77
2017-06-25T09:10:06.078Z,4.60
2017-06-25T09:12:33.848Z,3.40
2017-06-25T09:15:01.585Z,3.10
2017-06-25T09:17:29.319Z,2.77
2017-06-25T09:19:57.847Z,3.27
2017-06-25T09:22:25.594Z,2.63
2017-06-25T09:24:53.388Z,2.57
2017-06-25T09:27:21.124Z,2.13
2017-06-25T09:29:48.875Z,3.47
2017-06-25T09:32:16.633Z,2.93
2017-06-25T09:34:44.397Z,2.83
2017-06-25T09:37:12.189Z,2.90
2017-06-25T09:39:39.920Z,2.53
2017-06-25T09:42:07.689Z,3.17
2017-06-25T09:44:35.452Z,4.07
2017-06-25T09:47:03.188Z,2.97
2017-06-25T09:49:30.975Z,2.30
2017-06-25T09:51:58.708Z,2.63
2017-06-25T09:54:26.453Z,5.57
2017-06-25T09:56:54.984Z,2.90
2017-06-25T09:59:22.716Z,4.30
2017-06-25T10:01:50.496Z,2.93
2017-06-25T10:04:18.237Z,2.87
2017-06-25T10:06:45.976Z,2.67
2017-06-25T10:09:14.506Z,3.03
2017-06-25T10:11:42.243Z,3.60
2017-06-25T10:14:10.027Z,2.40
2017-06-25T10:16:37.765Z,3.87
2017-06-25T10:19:05.508Z,4.33
2017-06-25T10:21:34.077Z,3.10
2017-06-25T10:24:02.587Z,2.47
2017-06-25T10:26:30.365Z,2.77
2017-06-25T10:28:58.110Z,2.23
2017-06-25T10:31:25.859Z,15.10
2017-06-25T10:33:53.640Z,3.13
2017-06-25T10:36:21.377Z,2.90
2017-06-25T10:38:49.916Z,2.60
2017-06-25T10:41:17.656Z,3.13
2017-06-25T10:43:45.406Z,4.03
2017-06-25T10:46:13.170Z,3.20
2017-06-25T10:48:40.909Z,3.63
2017-06-25T10:51:08.687Z,3.07
2017-06-25T10:53:36.424Z,3.00
2017-06-25T10:56:04.169Z,2.60
2017-06-25T10:58:32.708Z,3.50
2017-06-25T11:01:00.442Z,4.67
2017-06-25T11:03:28.221Z,3.77
2017-06-25T11:05:55.955Z,5.07
2017-06-25T11:08:23.692Z,3.17
2017-06-25T11:10:51.465Z,3.23
2017-06-25T11:13:19.199Z,2.70
2017-06-25T11:15:46.979Z,2.80
2017-06-25T11:18:15.486Z,3.22
2017-06-25T11:20:43.232Z,5.73
2017-06-25T11:23:11.000Z,3.33
2017-06-25T11:25:38.749Z,3.35
2017-06-25T11:28:07.296Z,3.62
2017-06-25T11:30:35.040Z,4.15
2017-06-25T11:33:02.797Z,2.80
2017-06-25T11:35:30.568Z,3.37
2017-06-25T11:37:58.320Z,4.43
2017-06-25T11:40:26.111Z,3.67
2017-06-25T11:42:53.859Z,6.12
2017-06-25T11:45:21.596Z,3.20
2017-06-25T11:47:49.383Z,3.72
2017-06-25T11:50:17.128Z,3.70
2017-06-25T11:52:45.009Z,2.80
2017-06-25T11:55:12.754Z,3.53
2017-06-25T11:57:40.493Z,3.75
2017-06-25T12:00:08.260Z,4.50
2017-06-25T12:02:36.076Z,6.68
2017-06-25T12:05:04.621Z,3.62
2017-06-25T12:07:32.363Z,4.05
2017-06-25T12:10:00.100Z,3.92
2017-06-25T12:12:27.901Z,5.00
2017-06-25T12:14:55.637Z,5.00
2017-06-25T12:17:23.414Z,4.30
2017-06-25T12:19:51.147Z,3.00
2017-06-25T12:22:18.881Z,4.62
2017-06-25T12:24:46.652Z,3.50
2017-06-25T12:27:15.156Z,3.80
2017-06-25T12:29:42.936Z,4.53
2017-06-25T12:32:10.670Z,4.00
2017-06-25T12:34:38.403Z,3.78
2017-06-25T12:37:06.165Z,3.28
2017-06-25T12:39:34.668Z,3.92
2017-06-25T12:42:02.446Z,4.00
2017-06-25T12:44:30.194Z,4.47
2017-06-25T12:46:57.936Z,4.03
2017-06-25T12:49:26.475Z,4.93
2017-06-25T12:51:54.213Z,5.18
2017-06-25T12:54:21.993Z,3.47
2017-06-25T12:56:49.731Z,5.95
2017-06-25T12:59:17.464Z,2.92
2017-06-25T13:01:46.002Z,3.50
2017-06-25T13:04:13.742Z,3.90
2017-06-25T13:06:41.544Z,6.87
2017-06-25T13:09:09.284Z,3.75
2017-06-25T13:11:37.021Z,3.30
2017-06-25T13:14:04.787Z,2.95
2017-06-25T13:16:32.527Z,3.75
2017-06-25T13:19:00.333Z,3.85
2017-06-25T13:21:28.073Z,4.25
2017-06-25T13:23:55.816Z,3.65
2017-06-25T13:26:23.584Z,3.65
2017-06-25T13:28:51.325Z,4.10
2017-06-25T13:31:19.860Z,3.10
2017-06-25T13:33:47.593Z,3.75
2017-06-25T13:36:15.334Z,3.30
2017-06-25T13:38:43.105Z,4.37
2017-06-25T13:41:10.835Z,3.50
2017-06-25T13:43:39.371Z,4.78
2017-06-25T13:46:07.125Z,3.25
2017-06-25T13:48:34.860Z,3.22
2017-06-25T13:51:02.623Z,3.83
2017-06-25T13:53:30.360Z,3.60
2017-06-25T13:55:58.130Z,3.60
2017-06-25T13:58:26.630Z,3.90
2017-06-25T14:00:54.364Z,5.05
2017-06-25T14:03:22.162Z,3.20
2017-06-25T14:05:49.892Z,3.15
2017-06-25T14:08:18.429Z,4.18
2017-06-25T14:10:46.165Z,3.95
2017-06-25T14:13:13.901Z,4.57
2017-06-25T14:15:41.674Z,4.30
2017-06-25T14:18:09.408Z,4.18
2017-06-25T14:20:37.948Z,4.03
2017-06-25T14:23:05.678Z,5.20
2017-06-25T14:25:33.411Z,4.82
2017-06-25T14:28:01.931Z,4.22
2017-06-25T14:30:29.661Z,4.15
2017-06-25T14:32:58.201Z,3.35
2017-06-25T14:35:25.937Z,4.00
2017-06-25T14:37:53.671Z,3.40
2017-06-25T14:40:21.436Z,3.60
2017-06-25T14:42:49.178Z,5.35
2017-06-25T14:45:17.717Z,3.37
2017-06-25T14:47:45.453Z,4.25
2017-06-25T14:50:13.201Z,4.50
2017-06-25T14:52:40.973Z,6.70
2017-06-25T14:55:08.704Z,4.72
2017-06-25T14:57:36.492Z,3.53
2017-06-25T15:00:04.263Z,4.20
2017-06-25T15:02:32.041Z,6.12
2017-06-25T15:04:59.810Z,4.32
2017-06-25T15:07:27.544Z,4.40
2017-06-25T15:09:55.317Z,3.67
2017-06-25T15:12:23.053Z,3.80
2017-06-25T15:14:50.793Z,6.12
2017-06-25T15:17:19.324Z,3.97
2017-06-25T15:19:47.055Z,4.40
2017-06-25T15:22:14.825Z,4.00
2017-06-25T15:24:42.555Z,4.25
2017-06-25T15:27:11.056Z,4.85
2017-06-25T15:29:38.823Z,5.07
2017-06-25T15:32:06.561Z,7.18
2017-06-25T15:34:34.336Z,5.45
2017-06-25T15:37:02.068Z,4.00
2017-06-25T15:39:30.567Z,4.68
2017-06-25T15:41:58.334Z,4.57
2017-06-25T15:44:26.089Z,3.95
2017-06-25T15:46:53.882Z,4.65
2017-06-25T15:49:21.640Z,5.12
2017-06-25T15:51:49.380Z,5.20
2017-06-25T15:54:17.156Z,5.35
2017-06-25T15:56:44.899Z,6.95
2017-06-25T15:59:12.688Z,6.32
2017-06-25T16:01:40.417Z,7.15
2017-06-25T16:04:08.152Z,4.68
2017-06-25T16:06:36.676Z,3.87
2017-06-25T16:09:04.435Z,4.60
2017-06-25T16:11:32.225Z,4.10
2017-06-25T16:13:59.964Z,5.22
2017-06-25T16:16:27.691Z,4.70
2017-06-25T16:18:56.217Z,5.55
2017-06-25T16:21:23.952Z,3.95
2017-06-25T16:23:51.726Z,4.32
2017-06-25T16:26:19.459Z,3.55
2017-06-25T16:28:47.188Z,3.65
2017-06-25T16:31:14.958Z,3.65
2017-06-25T16:33:42.712Z,3.70
2017-06-25T16:36:11.261Z,3.55
2017-06-25T16:38:39.008Z,3.85
2017-06-25T16:41:06.746Z,5.12
2017-06-25T16:43:34.528Z,3.58
2017-06-25T16:46:02.257Z,6.12
2017-06-25T16:48:30.796Z,4.25
2017-06-25T16:50:58.531Z,3.97
2017-06-25T16:53:26.265Z,3.45
2017-06-25T16:55:54.036Z,3.15
2017-06-25T16:58:21.773Z,5.60
2017-06-25T17:00:50.317Z,5.65
2017-06-25T17:03:18.059Z,4.30
2017-06-25T17:05:45.793Z,5.15
2017-06-25T17:08:13.565Z,2.50
2017-06-25T17:10:41.305Z,2.60
2017-06-25T17:13:09.843Z,3.37
2017-06-25T17:15:37.588Z,3.83
2017-06-25T17:18:05.322Z,6.70
2017-06-25T17:20:33.095Z,2.58
2017-06-25T17:23:00.833Z,2.80
2017-06-25T17:25:28.612Z,4.62
2017-06-25T17:27:56.352Z,2.90
2017-06-25T17:30:24.839Z,2.85
2017-06-25T17:32:52.599Z,3.20
2017-06-25T17:35:20.333Z,3.42
2017-06-25T17:37:48.103Z,5.15
2017-06-25T17:40:16.604Z,4.45
2017-06-25T17:42:44.332Z,3.55
2017-06-25T17:45:12.208Z,6.95
2017-06-25T17:47:40.703Z,4.28
2017-06-25T17:50:08.476Z,4.40
2017-06-25T17:52:36.228Z,2.90
2017-06-25T17:55:03.975Z,3.28
2017-06-25T17:57:32.500Z,4.35
2017-06-25T18:00:00.232Z,4.10
2017-06-25T18:02:28.005Z,3.65
2017-06-25T18:04:55.755Z,3.20
2017-06-25T18:07:23.500Z,3.45
2017-06-25T18:09:52.029Z,4.40
2017-06-25T18:12:19.763Z,3.50
2017-06-25T18:14:47.532Z,2.97
2017-06-25T18:17:15.265Z,3.67
2017-06-25T18:19:43.769Z,6.03
2017-06-25T18:22:11.550Z,3.67
2017-06-25T18:24:39.292Z,3.70
2017-06-25T18:27:07.059Z,3.75
2017-06-25T18:29:34.827Z,3.62
2017-06-25T18:32:02.559Z,3.28
2017-06-25T18:34:30.325Z,6.97
2017-06-25T18:36:58.060Z,4.72
2017-06-25T18:39:26.815Z,3.53
2017-06-25T18:41:54.559Z,6.10
2017-06-25T18:44:22.288Z,5.07
2017-06-25T18:46:50.047Z,3.85
2017-06-25T18:49:17.780Z,3.50
2017-06-25T18:51:45.549Z,3.42
2017-06-25T18:54:14.044Z,4.15
2017-06-25T18:56:41.776Z,4.22
2017-06-25T18:59:09.545Z,3.60
2017-06-25T19:01:38.046Z,6.43
2017-06-25T19:04:05.816Z,6.68
2017-06-25T19:06:33.543Z,5.25
2017-06-25T19:09:01.281Z,7.68
2017-06-25T19:11:29.052Z,5.37
2017-06-25T19:13:56.784Z,7.65
2017-06-25T19:16:24.552Z,4.40
2017-06-25T19:18:52.300Z,4.35
2017-06-25T19:21:20.030Z,4.07
2017-06-25T19:23:47.800Z,5.15
2017-06-25T19:26:15.547Z,3.40
2017-06-25T19:28:44.090Z,3.22
2017-06-25T19:31:11.824Z,2.95
2017-06-25T19:33:39.571Z,6.50
2017-06-25T19:36:07.339Z,4.37
2017-06-25T19:38:35.084Z,3.45
2017-06-25T19:41:02.876Z,2.40
2017-06-25T19:43:30.615Z,3.85
2017-06-25T19:45:58.349Z,2.72
2017-06-25T19:48:26.889Z,4.40
2017-06-25T19:50:54.619Z,2.60
2017-06-25T19:53:22.388Z,2.80
2017-06-25T19:55:50.126Z,4.22
2017-06-25T19:58:17.869Z,4.80
2017-06-25T20:00:46.401Z,3.25
2017-06-25T20:03:14.145Z,2.55
2017-06-25T20:05:41.910Z,2.30
2017-06-25T20:08:09.651Z,6.60
2017-06-25T20:10:37.396Z,3.20
2017-06-25T20:13:05.923Z,3.45
2017-06-25T20:15:33.652Z,4.45
2017-06-25T20:18:01.437Z,3.33
2017-06-25T20:20:29.183Z,3.65
2017-06-25T20:22:56.924Z,3.25
2017-06-25T20:25:25.453Z,2.55
2017-06-25T20:27:53.185Z,2.60
2017-06-25T20:30:20.955Z,3.30
2017-06-25T20:32:48.689Z,3.15
2017-06-25T20:35:17.188Z,3.22
2017-06-25T20:37:44.955Z,2.80
2017-06-25T20:40:12.689Z,2.70
2017-06-25T20:42:41.226Z,3.40
2017-06-25T20:45:08.965Z,2.75
2017-06-25T20:47:36.701Z,4.00
2017-06-25T20:50:04.472Z,2.35
2017-06-25T20:52:32.201Z,3.00
2017-06-25T20:55:00.737Z,2.47
2017-06-25T20:57:28.468Z,2.45
2017-06-25T20:59:56.206Z,2.72
2017-06-25T21:02:24.744Z,2.50
2017-06-25T21:04:52.485Z,2.90
2017-06-25T21:07:20.253Z,2.83
2017-06-25T21:09:48.039Z,4.62
2017-06-25T21:12:15.820Z,2.50
2017-06-25T21:14:44.356Z,2.60
2017-06-25T21:17:12.093Z,2.45
2017-06-25T21:19:39.867Z,2.55
2017-06-25T21:22:07.600Z,3.87
2017-06-25T21:24:36.106Z,2.17
2017-06-25T21:27:03.868Z,3.15
2017-06-25T21:29:31.604Z,3.12
2017-06-25T21:31:59.376Z,2.58
2017-06-25T21:34:27.104Z,2.72
2017-06-25T21:36:54.844Z,3.15
2017-06-25T21:39:22.606Z,3.03
2017-06-25T21:41:50.344Z,2.70
2017-06-25T21:44:18.111Z,3.20
2017-06-25T21:46:45.846Z,3.10
2017-06-25T21:49:13.581Z,2.80
2017-06-25T21:51:42.108Z,3.33
2017-06-25T21:54:09.844Z,5.50
2017-06-25T21:56:37.628Z,3.17
2017-06-25T21:59:05.393Z,3.58
2017-06-25T22:01:33.125Z,2.67
2017-06-25T22:04:00.883Z,3.00
2017-06-25T22:06:28.626Z,2.60
2017-06-25T22:08:57.165Z,2.33
2017-06-25T22:11:24.896Z,2.70
2017-06-25T22:13:52.636Z,3.53
2017-06-25T22:16:21.166Z,5.12
2017-06-25T22:18:48.890Z,3.40
2017-06-25T22:21:16.908Z,2.70
2017-06-25T22:23:44.639Z,2.83
2017-06-25T22:26:12.368Z,3.53
2017-06-25T22:28:40.132Z,3.50
2017-06-25T22:31:07.861Z,2.75
2017-06-25T22:33:35.639Z,3.50
2017-06-25T22:36:04.136Z,3.03
2017-06-25T22:38:31.869Z,2.80
2017-06-25T22:40:59.637Z,2.80
2017-06-25T22:43:28.145Z,2.72
2017-06-25T22:45:55.919Z,3.35
2017-06-25T22:48:23.648Z,3.28
2017-06-25T22:50:52.147Z,4.37
2017-06-25T22:53:19.903Z,3.10
2017-06-25T22:55:47.637Z,4.07
2017-06-25T22:58:16.186Z,3.12
2017-06-25T23:00:43.918Z,2.78
2017-06-25T23:03:11.659Z,4.03
2017-06-25T23:05:39.437Z,3.03
2017-06-25T23:08:07.171Z,4.47
2017-06-25T23:10:35.909Z,3.17
2017-06-25T23:13:03.645Z,3.22
2017-06-25T23:15:31.377Z,2.95
2017-06-25T23:17:59.913Z,3.22
2017-06-25T23:20:27.660Z,3.05
2017-06-25T23:22:55.387Z,3.90
2017-06-25T23:25:23.146Z,3.50
2017-06-25T23:27:50.880Z,3.25
2017-06-25T23:30:18.618Z,3.40
2017-06-25T23:32:46.414Z,3.47
2017-06-25T23:35:14.145Z,3.92
2017-06-25T23:37:41.882Z,4.03
2017-06-25T23:40:09.671Z,5.30
2017-06-25T23:42:37.404Z,3.65
2017-06-25T23:45:05.139Z,4.45
2017-06-25T23:47:32.905Z,3.50
2017-06-25T23:50:00.638Z,4.20
2017-06-25T23:52:28.399Z,3.72
2017-06-25T23:54:56.164Z,4.07
2017-06-25T23:57:24.669Z,3.53
2017-06-25T23:59:52.433Z,4.65
